KFLL/FLL METAR and TAF weather

Enter ICAO airport designator
Station Type Date Time Source
KFLL METAR 2020/08/07 10:53 UTC NOAA

KFLL 071053Z 00000KT 10SM FEW025 FEW200 28/26 A3004 RMK AO2 SLP172 T02780256 $


Station Type Date Time Source
KFLL Decoded METAR 2020/08/07 10:53 UTC NOAA

FORT LAUDERDALE/HOLLYWOOD, FL, United States (KFLL) 26-04N 080-09W 30M
Aug 07, 2020 - 06:53 AM EDT / 2020.08.07 1053 UTC
Wind: Calm:0
Visibility: 10 mile(s):0
Sky conditions: mostly clear
Temperature: 82.0 F (27.8 C)
Dew Point: 78.1 F (25.6 C)
Relative Humidity: 87%
Pressure (altimeter): 30.04 in. Hg (1017 hPa)
ob: KFLL 071053Z 00000KT 10SM FEW025 FEW200 28/26 A3004 RMK AO2 SLP172 T02780256
cycle: 11

Station Type Date Time Source
KFLL TAF 2020/08/07 12:24 UTC NOAA

TAF KFLL 071121Z 0712/0818 VRB03KT P6SM FEW025 SCT100
FM071600 10009KT P6SM VCTS SCT025CB BKN045
FM080200 VRB04KT P6SM FEW040 SCT100
FM081500 08008KT P6SM VCSH SCT025 BKN050

Example: see airport list